Time;durP1;ratioP1;P1;durP2;ratioP2;P2;SDS_P1;SDS_P2;PMS_P1;PMS_P2;Temp;Humidity;BMP_temperature;BMP_pressure;BME280_temperature;BME280_humidity;BME280_pressure;Samples;Min_cycle;Max_cycle;Signal;HPM_P1;HPM_P2
2023/06/10 17:01:55;;;;;;;4.07;2.90;;;29.90;1.00;;;;;;5395146;23;20237;-88
2023/06/10 17:04:22;;;;;;;3.95;2.65;;;30.00;1.00;;;;;;4990143;28;20576;-88
2023/06/10 17:06:49;;;;;;;6.97;2.97;;;30.10;1.00;;;;;;4991288;28;20207;-89
2023/06/10 17:09:16;;;;;;;4.05;2.33;;;30.30;1.00;;;;;;4992204;28;20195;-88
2023/06/10 17:11:43;;;;;;;3.67;2.78;;;30.50;1.00;;;;;;4987946;28;20287;-88
2023/06/10 17:14:10;;;;;;;8.40;2.65;;;30.80;1.00;;;;;;4985569;28;20664;-88
2023/06/10 17:16:37;;;;;;;5.55;2.78;;;30.80;1.00;;;;;;4993383;28;20715;-88
2023/06/10 17:19:05;;;;;;;3.60;2.60;;;30.90;1.00;;;;;;4993274;28;20191;-89
2023/06/10 17:21:32;;;;;;;4.72;2.53;;;30.90;1.00;;;;;;4988532;28;20226;-90
2023/06/10 17:23:59;;;;;;;6.53;2.50;;;30.90;1.00;;;;;;4994654;28;20215;-89
2023/06/10 17:26:26;;;;;;;6.30;2.90;;;30.80;1.00;;;;;;4992990;28;20203;-90
2023/06/10 17:28:54;;;;;;;3.85;2.47;;;30.80;1.00;;;;;;4987075;28;20319;-90
2023/06/10 17:31:20;;;;;;;5.03;2.63;;;30.90;1.00;;;;;;4991375;28;20199;-90
2023/06/10 17:33:47;;;;;;;3.13;2.28;;;30.90;1.00;;;;;;4993848;28;20199;-90
2023/06/10 17:36:15;;;;;;;5.05;2.47;;;30.90;1.00;;;;;;4991614;28;20226;-90
2023/06/10 17:38:42;;;;;;;4.57;2.40;;;30.90;1.00;;;;;;4994183;28;20648;-91
2023/06/10 17:41:09;;;;;;;3.25;2.55;;;31.00;1.00;;;;;;4992214;28;20195;-90
2023/06/10 17:43:36;;;;;;;4.53;2.25;;;30.90;1.00;;;;;;4987138;28;20231;-90
2023/06/10 17:46:03;;;;;;;5.03;2.40;;;30.80;1.00;;;;;;4993993;28;20199;-90
2023/06/10 17:48:30;;;;;;;4.85;2.40;;;30.80;1.00;;;;;;4989425;28;20664;-89
2023/06/10 17:50:56;;;;;;;8.55;2.85;;;30.80;1.00;;;;;;4989696;28;20211;-90
2023/06/10 17:53:24;;;;;;;6.88;2.47;;;30.70;1.00;;;;;;4993870;28;20199;-90
2023/06/10 17:55:51;;;;;;;5.60;2.03;;;30.60;1.00;;;;;;4987956;28;20203;-90
2023/06/10 17:58:18;;;;;;;7.22;2.47;;;30.60;1.00;;;;;;4985687;28;20203;-89
2023/06/10 18:00:45;;;;;;;2.92;2.30;;;30.60;1.00;;;;;;4993572;28;20246;-90
2023/06/10 18:03:11;;;;;;;5.43;2.53;;;30.60;1.00;;;;;;4991527;28;20229;-90
2023/06/10 18:05:38;;;;;;;5.65;2.60;;;30.60;1.00;;;;;;4988980;28;20207;-89
2023/06/10 18:08:05;;;;;;;4.60;2.35;;;30.40;1.00;;;;;;4988638;28;20211;-89
2023/06/10 18:10:33;;;;;;;6.45;2.50;;;29.70;1.00;;;;;;4999325;28;20196;-89
2023/06/10 18:13:01;;;;;;;4.68;2.40;;;28.70;1.00;;;;;;4992441;28;20207;-89
2023/06/10 18:15:29;;;;;;;4.63;2.40;;;27.60;1.00;;;;;;4992198;28;20246;-87
2023/06/10 18:17:56;;;;;;;3.13;2.17;;;26.80;1.00;;;;;;4989452;28;20203;-88
2023/06/10 18:20:23;;;;;;;3.65;2.10;;;26.20;1.00;;;;;;4987457;28;20294;-89
2023/06/10 18:22:50;;;;;;;7.78;2.47;;;25.70;1.00;;;;;;4986219;28;20234;-90
2023/06/10 18:25:17;;;;;;;5.20;2.50;;;25.30;1.00;;;;;;4990187;28;20199;-90
2023/06/10 18:27:45;;;;;;;6.07;2.30;;;25.00;1.00;;;;;;4985451;28;20203;-89
2023/06/10 18:30:12;;;;;;;5.35;2.30;;;24.70;1.00;;;;;;4987193;28;20685;-89
2023/06/10 18:32:39;;;;;;;5.45;2.35;;;24.40;1.00;;;;;;4988704;28;20253;-89
2023/06/10 18:35:06;;;;;;;4.00;2.15;;;24.20;1.00;;;;;;4983192;28;20258;-87
2023/06/10 18:37:33;;;;;;;7.45;2.83;;;24.00;1.00;;;;;;4990340;28;20199;-87
2023/06/10 18:40:00;;;;;;;3.75;2.30;;;23.80;1.00;;;;;;4992825;28;20200;-89
2023/06/10 18:42:27;;;;;;;8.00;2.33;;;23.60;1.00;;;;;;4987898;28;20216;-89
2023/06/10 18:44:55;;;;;;;4.72;2.30;;;23.40;1.00;;;;;;4992691;28;20203;-89
2023/06/10 18:47:21;;;;;;;5.50;2.45;;;23.20;1.00;;;;;;4996170;28;20202;-90
2023/06/10 18:49:48;;;;;;;6.13;2.33;;;23.10;1.00;;;;;;4992542;28;20222;-89
2023/06/10 18:52:15;;;;;;;6.53;2.22;;;23.00;1.00;;;;;;4992966;28;20195;-91
2023/06/10 18:54:42;;;;;;;7.35;2.42;;;22.80;1.00;;;;;;4983264;28;20202;-89
2023/06/10 18:57:10;;;;;;;6.05;2.40;;;22.80;1.00;;;;;;4989478;28;20205;-89
2023/06/10 18:59:37;;;;;;;4.43;2.28;;;22.70;1.00;;;;;;4988204;28;20213;-88
2023/06/10 19:02:06;;;;;;;3.13;2.28;;;22.50;1.00;;;;;;4992859;28;20226;-89
2023/06/10 19:04:33;;;;;;;4.13;2.20;;;22.40;1.00;;;;;;4990347;28;20213;-89
2023/06/10 19:07:00;;;;;;;4.95;2.55;;;22.30;1.00;;;;;;4991097;28;20191;-91
2023/06/10 19:09:26;;;;;;;3.72;2.50;;;22.30;1.00;;;;;;4986411;28;20207;-89
2023/06/10 19:11:53;;;;;;;7.20;2.53;;;22.10;1.00;;;;;;4987141;28;20199;-88
2023/06/10 19:14:20;;;;;;;5.97;2.50;;;22.00;1.00;;;;;;4995689;28;20203;-88
2023/06/10 19:16:47;;;;;;;2.70;2.22;;;21.90;1.00;;;;;;4990545;28;20207;-89
2023/06/10 19:19:15;;;;;;;4.65;2.25;;;21.70;1.00;;;;;;4992331;28;20199;-89
2023/06/10 19:21:42;;;;;;;3.05;2.10;;;21.60;1.00;;;;;;4995586;28;20203;-88
2023/06/10 19:24:09;;;;;;;4.72;2.22;;;21.40;1.00;;;;;;4994604;28;20206;-89
2023/06/10 19:26:36;;;;;;;5.13;2.28;;;21.30;1.00;;;;;;4994214;28;20202;-89
2023/06/10 19:29:03;;;;;;;4.63;2.25;;;21.10;1.00;;;;;;4993292;28;20203;-89
2023/06/10 19:31:30;;;;;;;4.30;2.67;;;21.00;1.00;;;;;;4994311;28;20215;-89
2023/06/10 19:33:56;;;;;;;3.97;2.40;;;20.90;1.00;;;;;;4995557;28;20195;-89
2023/06/10 19:36:25;;;;;;;5.35;2.28;;;20.80;1.00;;;;;;4992442;28;20258;-89
2023/06/10 19:38:51;;;;;;;3.97;2.20;;;20.70;1.00;;;;;;4994041;28;20665;-88
2023/06/10 19:41:20;;;;;;;6.38;2.70;;;20.70;1.00;;;;;;4990744;28;20253;-88
2023/06/10 19:43:46;;;;;;;5.47;2.80;;;20.50;1.00;;;;;;4990088;28;20224;-87
2023/06/10 19:46:17;;;;;;;7.75;2.83;;;20.50;1.00;;;;;;4983921;28;20210;-88
2023/06/10 19:48:44;;;;;;;5.32;2.10;;;20.30;1.00;;;;;;4991792;28;20664;-89
2023/06/10 19:51:11;;;;;;;7.93;2.63;;;20.20;1.00;;;;;;4993119;28;20664;-89
2023/06/10 19:53:40;;;;;;;6.50;2.20;;;20.10;1.00;;;;;;4990918;28;20195;-89
2023/06/10 19:56:07;;;;;;;4.25;2.38;;;20.00;1.00;;;;;;4992933;28;20198;-88
2023/06/10 19:58:34;;;;;;;6.05;2.40;;;19.90;1.00;;;;;;4981334;28;20226;-88
2023/06/10 20:01:00;;;;;;;8.98;2.50;;;19.80;1.00;;;;;;4989469;28;20238;-89
2023/06/10 20:03:27;;;;;;;5.97;2.70;;;19.80;1.00;;;;;;4989993;28;20215;-88
2023/06/10 20:05:54;;;;;;;2.95;2.40;;;19.70;1.00;;;;;;4992556;28;20222;-88
2023/06/10 20:08:22;;;;;;;4.95;2.70;;;19.50;1.00;;;;;;4991725;28;20202;-88
2023/06/10 20:10:50;;;;;;;5.70;2.40;;;19.40;1.00;;;;;;4992428;28;20205;-88
2023/06/10 20:13:17;;;;;;;3.38;2.30;;;19.30;1.00;;;;;;4990036;28;20199;-88
2023/06/10 20:15:43;;;;;;;11.68;3.20;;;19.10;1.00;;;;;;4990350;28;20198;-87
2023/06/10 20:18:10;;;;;;;5.97;2.22;;;19.00;1.00;;;;;;4991891;28;20203;-86
2023/06/10 20:20:37;;;;;;;7.03;2.38;;;18.80;1.00;;;;;;4991841;28;20203;-87
2023/06/10 20:23:04;;;;;;;3.42;2.35;;;18.70;1.00;;;;;;4989995;28;20222;-86
2023/06/10 20:25:33;;;;;;;6.35;2.53;;;18.50;1.00;;;;;;4990380;28;20218;-87
2023/06/10 20:28:01;;;;;;;7.05;2.42;;;18.40;1.00;;;;;;4992702;28;20195;-87
2023/06/10 20:30:28;;;;;;;4.78;2.22;;;18.30;1.00;;;;;;4991170;28;20206;-89
2023/06/10 20:32:54;;;;;;;5.00;2.42;;;18.30;1.00;;;;;;4991115;28;20198;-88
2023/06/10 20:35:21;;;;;;;8.05;2.83;;;18.20;1.00;;;;;;4995698;28;20205;-89
2023/06/10 20:37:49;;;;;;;4.63;2.20;;;18.20;1.00;;;;;;4993461;28;20377;-88
2023/06/10 20:40:17;;;;;;;5.88;2.53;;;18.10;1.00;;;;;;4995075;28;20699;-88
2023/06/10 20:42:44;;;;;;;6.88;2.13;;;18.00;1.00;;;;;;4992876;28;20734;-89
2023/06/10 20:45:12;;;;;;;3.53;2.47;;;17.90;1.00;;;;;;4992161;28;20199;-89
2023/06/10 20:47:40;;;;;;;7.07;2.38;;;17.80;1.00;;;;;;4991082;28;20209;-89
2023/06/10 20:50:10;;;;;;;3.78;2.40;;;17.70;1.00;;;;;;4991663;28;20195;-89
2023/06/10 20:52:37;;;;;;;5.50;2.40;;;17.70;1.00;;;;;;4993111;28;20199;-89
2023/06/10 20:55:04;;;;;;;3.70;2.63;;;17.70;1.00;;;;;;4994964;28;20199;-88
2023/06/10 20:57:31;;;;;;;6.05;2.28;;;17.70;1.00;;;;;;4987891;28;20724;-88
2023/06/10 20:59:58;;;;;;;4.35;2.42;;;17.70;1.00;;;;;;4993340;28;20571;-87
2023/06/10 21:02:26;;;;;;;4.55;2.20;;;17.60;1.00;;;;;;4986389;28;20232;-89
2023/06/10 21:04:54;;;;;;;5.45;2.53;;;17.60;1.00;;;;;;4993341;28;20205;-89
2023/06/10 21:07:21;;;;;;;4.43;2.28;;;17.60;1.00;;;;;;4993238;28;20207;-88
2023/06/10 21:09:48;;;;;;;5.63;2.00;;;17.60;1.00;;;;;;4994413;28;20250;-88
2023/06/10 21:12:15;;;;;;;4.82;2.40;;;17.60;1.00;;;;;;4992589;28;20201;-88
2023/06/10 21:14:41;;;;;;;6.53;2.50;;;17.60;1.00;;;;;;4990766;28;20578;-87
2023/06/10 21:17:08;;;;;;;3.47;2.15;;;17.60;1.00;;;;;;4988787;28;20198;-90
2023/06/10 21:19:36;;;;;;;4.18;2.35;;;17.60;1.00;;;;;;4991775;28;20211;-91
2023/06/10 21:22:03;;;;;;;3.72;2.33;;;17.60;1.00;;;;;;4992196;28;20206;-91
2023/06/10 21:24:30;;;;;;;4.72;2.47;;;17.60;1.00;;;;;;4992153;28;20714;-91
2023/06/10 21:26:57;;;;;;;6.40;2.22;;;17.60;1.00;;;;;;4987387;28;20195;-91
2023/06/10 21:29:24;;;;;;;7.22;2.30;;;17.50;1.00;;;;;;4990949;28;20214;-90
2023/06/10 21:31:50;;;;;;;7.15;2.40;;;17.40;1.00;;;;;;4991513;28;20207;-90
2023/06/10 21:34:17;;;;;;;2.80;2.13;;;17.20;1.00;;;;;;4990286;28;20203;-89
2023/06/10 21:36:45;;;;;;;3.00;2.50;;;17.10;1.00;;;;;;4991655;28;20191;-91
2023/06/10 21:39:12;;;;;;;5.07;2.50;;;17.00;1.00;;;;;;4991854;28;20199;-91
2023/06/10 21:41:39;;;;;;;3.80;2.13;;;16.90;1.00;;;;;;4989459;28;20195;-91
2023/06/10 21:44:06;;;;;;;4.60;2.33;;;16.80;1.00;;;;;;4988379;28;20218;-90
2023/06/10 21:46:33;;;;;;;4.82;2.00;;;16.70;1.00;;;;;;4990474;28;20202;-91
2023/06/10 21:49:02;;;;;;;4.50;2.17;;;16.70;3.20;;;;;;4987788;28;20206;-91
2023/06/10 21:51:29;;;;;;;6.18;2.40;;;16.70;4.10;;;;;;4991078;28;20195;-91
2023/06/10 21:53:57;;;;;;;7.22;2.00;;;16.60;1.00;;;;;;4989731;28;20211;-90
2023/06/10 21:56:25;;;;;;;4.72;2.30;;;16.60;1.00;;;;;;4991691;28;20242;-90
2023/06/10 21:58:52;;;;;;;4.43;2.00;;;16.50;1.00;;;;;;4992478;28;20206;-90
2023/06/10 22:01:19;;;;;;;3.28;2.40;;;16.50;1.00;;;;;;4990972;28;20226;-90
2023/06/10 22:03:46;;;;;;;4.38;2.30;;;16.40;1.00;;;;;;4991723;28;20194;-90
2023/06/10 22:06:13;;;;;;;5.78;2.28;;;16.40;1.00;;;;;;4990101;28;20199;-91
2023/06/10 22:08:39;;;;;;;4.93;2.15;;;16.30;1.00;;;;;;4993565;28;20209;-91
2023/06/10 22:11:08;;;;;;;5.07;2.20;;;16.30;1.00;;;;;;4995316;28;20668;-90
2023/06/10 22:13:34;;;;;;;5.63;2.40;;;16.30;1.00;;;;;;4995288;28;20229;-91
2023/06/10 22:16:01;;;;;;;8.75;2.20;;;16.30;1.00;;;;;;4994851;28;20202;-90
2023/06/10 22:18:29;;;;;;;4.20;2.05;;;16.20;1.00;;;;;;4993665;28;20206;-91
2023/06/10 22:20:55;;;;;;;4.90;2.00;;;16.20;1.00;;;;;;4993303;28;20600;-91
2023/06/10 22:23:23;;;;;;;8.35;2.10;;;16.10;1.00;;;;;;4996426;28;20198;-91
2023/06/10 22:25:50;;;;;;;6.68;2.33;;;16.10;1.00;;;;;;4994328;28;20210;-89
2023/06/10 22:28:18;;;;;;;7.57;2.20;;;16.00;1.00;;;;;;4992557;28;20727;-90
2023/06/10 22:30:45;;;;;;;4.72;2.17;;;15.90;1.00;;;;;;4992791;28;20202;-89
2023/06/10 22:33:12;;;;;;;2.55;2.03;;;15.80;1.00;;;;;;4994513;28;20718;-90
2023/06/10 22:35:39;;;;;;;5.63;2.63;;;15.80;1.00;;;;;;4994310;28;20569;-90
2023/06/10 22:38:06;;;;;;;8.88;1.92;;;15.70;1.00;;;;;;4990222;28;20197;-90
2023/06/10 22:40:32;;;;;;;3.97;1.85;;;15.60;1.00;;;;;;4995149;28;20210;-89
2023/06/10 22:43:00;;;;;;;6.57;2.15;;;15.60;1.00;;;;;;4994261;28;20199;-90
2023/06/10 22:45:28;;;;;;;3.15;1.85;;;15.50;1.00;;;;;;4992937;28;20207;-89
2023/06/10 22:47:54;;;;;;;4.32;1.80;;;15.40;2.70;;;;;;4990029;28;20209;-90
2023/06/10 22:50:21;;;;;;;5.40;2.13;;;15.30;3.30;;;;;;4992519;28;20307;-88
2023/06/10 22:52:49;;;;;;;5.43;2.10;;;15.20;4.10;;;;;;4993251;28;20201;-89
2023/06/10 22:55:16;;;;;;;5.22;2.00;;;15.20;6.00;;;;;;4995284;28;20217;-89
2023/06/10 22:57:43;;;;;;;7.05;2.85;;;15.10;6.90;;;;;;4994290;28;20198;-89
2023/06/10 23:00:11;;;;;;;10.93;2.33;;;15.10;10.60;;;;;;4992899;28;20869;-90
2023/06/10 23:02:39;;;;;;;2.65;1.85;;;15.00;10.90;;;;;;4991821;28;21832;-90
2023/06/10 23:05:07;;;;;;;5.53;1.75;;;14.90;10.40;;;;;;4992641;28;20214;-91
2023/06/10 23:07:34;;;;;;;3.65;2.05;;;14.90;11.50;;;;;;4993001;28;20214;-90
2023/06/10 23:10:01;;;;;;;3.90;2.20;;;14.80;12.90;;;;;;4995322;28;20281;-90
2023/06/10 23:12:27;;;;;;;3.27;2.10;;;14.80;17.30;;;;;;4992704;28;20233;-89
2023/06/10 23:14:54;;;;;;;6.33;1.90;;;14.70;17.20;;;;;;4994513;28;20234;-90
2023/06/10 23:17:21;;;;;;;3.93;2.00;;;14.70;17.50;;;;;;4993523;28;20204;-90
2023/06/10 23:19:50;;;;;;;3.17;2.00;;;14.60;18.80;;;;;;4991890;28;20616;-89
2023/06/10 23:22:17;;;;;;;3.03;1.77;;;14.60;20.20;;;;;;4994663;28;20203;-89
2023/06/10 23:24:44;;;;;;;4.50;2.17;;;14.60;22.20;;;;;;4992451;28;20190;-88
2023/06/10 23:27:13;;;;;;;5.53;2.00;;;14.60;25.50;;;;;;4991874;28;20197;-90
2023/06/10 23:29:39;;;;;;;4.83;2.00;;;14.60;26.90;;;;;;4992750;28;20214;-90
2023/06/10 23:32:06;;;;;;;6.37;1.83;;;14.60;27.50;;;;;;4992711;28;20200;-91
2023/06/10 23:34:33;;;;;;;6.37;2.10;;;14.60;30.40;;;;;;4993747;28;20233;-90
2023/06/10 23:37:04;;;;;;;5.17;1.70;;;14.60;46.40;;;;;;4991418;28;20230;-90
2023/06/10 23:39:30;;;;;;;4.97;1.63;;;14.60;32.50;;;;;;4992444;28;20213;-90
2023/06/10 23:41:58;;;;;;;4.30;1.93;;;14.50;40.30;;;;;;4994084;28;20205;-89
2023/06/10 23:44:25;;;;;;;6.80;1.90;;;14.60;43.10;;;;;;4991336;28;20474;-90
2023/06/10 23:46:51;;;;;;;5.80;1.90;;;14.50;44.70;;;;;;4990623;28;20695;-89
2023/06/10 23:49:18;;;;;;;3.13;1.87;;;14.50;49.10;;;;;;4993687;28;20202;-89
2023/06/10 23:51:45;;;;;;;3.90;2.07;;;14.50;52.70;;;;;;4990973;28;20211;-89
2023/06/10 23:54:13;;;;;;;5.60;2.07;;;14.40;56.50;;;;;;4989521;28;20715;-89
2023/06/10 23:56:40;;;;;;;3.83;2.03;;;14.40;58.80;;;;;;4990978;28;20202;-90
2023/06/10 23:59:07;;;;;;;5.00;1.80;;;14.40;60.80;;;;;;4993052;28;20579;-91
